Date,TemperatureHighF,TemperatureAvgF,TemperatureLowF,DewpointHighF,DewpointAvgF,DewpointLowF,HumidityHigh,HumidityAvg,HumidityLow,PressureMaxIn,PressureMinIn,WindSpeedMaxMPH,WindSpeedAvgMPH,GustSpeedMaxMPH,PrecipitationSumIn
2012-1-1,55.1,45.6,40.5,44.0,39.8,31.5,93,80,62,30.10,29.68,25,2,25,0.06
2012-1-2,40.5,33.7,27.7,31.9,22.8,17.5,83,64,48,29.86,29.76,25,5,25,0.00
2012-1-3,27.7,21.3,9.8,21.9,6.4,-2.9,82,53,33,30.25,29.86,24,3,24,0.06
2012-1-4,24.7,16.5,7.1,13.7,5.6,-3.9,79,62,54,30.27,29.95,10,1,10,0.00
2012-1-5,37.6,28.1,19.5,26.1,20.3,13.8,89,73,59,29.98,29.90,11,1,11,0.00
2012-1-6,57.4,35.2,21.5,36.6,27.2,19.1,94,75,45,29.91,29.73,16,1,16,0.00
2012-1-7,57.9,36.7,23.4,43.4,29.7,21.1,96,77,54,30.06,29.75,17,1,18,0.00
2012-1-8,41.9,32.9,24.2,32.3,25.3,19.2,90,74,55,30.35,30.06,13,1,13,0.00
2012-1-9,46.2,33.2,22.6,30.1,23.4,19.6,91,69,41,30.34,29.98,11,1,11,0.00
2012-1-10,44.1,31.8,22.2,32.4,25.4,19.7,94,78,59,30.04,29.90,15,1,16,0.00
2012-1-11,50.7,34.0,20.1,38.0,28.6,17.9,95,82,57,30.07,29.70,14,1,14,0.26
2012-1-12,46.3,43.3,38.9,44.7,41.6,37.0,98,94,90,29.70,29.37,17,3,18,0.36
2012-1-13,47.4,30.6,23.6,45.4,23.9,11.9,96,77,57,29.86,29.23,36,7,36,0.34
2012-1-14,31.8,26.1,22.3,20.1,17.6,13.2,90,70,53,30.13,29.85,20,4,20,0.06
2012-1-15,27.2,17.0,6.7,13.5,5.6,0.6,78,61,42,30.59,30.13,12,1,13,0.06
2012-1-16,35.6,23.2,7.6,27.8,14.4,3.3,85,70,50,30.58,30.08,16,2,18,0.00
2012-1-17,47.2,37.4,33.6,44.0,35.1,27.7,99,92,71,30.08,29.55,16,1,17,0.15
2012-1-18,47.1,32.6,19.0,38.2,18.7,10.9,73,57,40,30.19,29.65,23,3,23,0.06
2012-1-19,33.1,23.9,13.0,25.2,15.0,8.2,90,70,47,30.20,29.92,20,2,20,0.06
2012-1-20,31.4,24.3,16.1,25.6,12.1,5.1,91,60,44,30.29,29.94,13,1,15,0.06
2012-1-21,28.9,24.7,21.3,23.0,19.5,13.4,91,81,62,30.35,30.04,10,1,10,0.01
2012-1-22,39.1,22.6,5.6,28.0,15.7,1.6,89,76,48,30.51,30.33,16,1,16,0.07
2012-1-23,44.7,38.2,31.4,43.6,36.2,27.4,98,92,84,30.34,29.85,19,2,19,0.39
2012-1-24,42.3,39.2,36.5,38.8,35.3,30.1,98,87,72,30.28,29.90,12,2,12,0.00
2012-1-25,48.1,35.7,31.0,30.1,28.1,-4.4,86,74,65,33.15,25.48,13,1,14,0.00
2012-1-26,56.4,35.0,31.4,37.3,32.4,-20.1,96,90,84,30.68,27.72,11,1,11,0.34
2012-1-27,51.8,43.7,38.0,51.8,39.5,29.8,100,86,69,29.95,29.42,22,3,26,0.53
2012-1-28,47.0,37.9,29.5,35.5,27.7,12.7,91,68,40,30.09,29.87,24,3,27,0.00
2012-1-29,60.6,34.9,26.3,30.6,19.1,-14.4,81,53,41,30.74,26.90,26,4,28,0.00
2012-1-30,52.3,32.9,28.4,23.4,18.3,-44.2,67,55,42,34.89,30.06,19,3,19,0.00
2012-1-31,59.9,38.0,-5.4,37.1,28.0,-11.5,87,69,40,34.95,29.99,15,1,15,0.00
2012-2-1,60.0,47.0,36.5,46.6,40.2,32.4,91,78,55,33.15,29.93,22,2,22,0.00
2012-2-2,39.6,35.1,29.0,36.3,29.7,21.8,96,81,58,30.34,30.02,16,2,18,0.00
2012-2-3,46.0,30.8,23.1,28.4,20.9,-99.9,86,75,48,30.50,28.82,6,1,15,0.00
2012-2-4,44.4,31.7,21.9,31.3,25.7,19.4,94,79,57,30.36,30.13,8,0,9,0.00
2012-2-5,46.1,31.1,22.0,29.2,23.4,18.2,91,75,47,30.21,30.12,13,1,13,0.00
2012-2-6,52.4,33.9,18.8,33.6,24.8,16.4,94,72,42,30.20,29.99,15,2,15,0.00
2012-2-7,44.5,35.7,26.6,33.0,27.7,22.4,90,73,57,30.27,30.02,9,1,11,0.00
2012-2-8,34.7,30.4,25.3,28.8,25.3,21.5,93,82,63,30.30,30.13,5,0,8,0.03
2012-2-9,43.0,27.9,18.2,27.8,23.2,15.7,94,83,51,30.23,30.13,11,1,12,0.18
2012-2-10,39.6,30.7,18.6,28.8,23.2,16.3,94,75,55,30.17,29.91,13,1,13,0.18
2012-2-11,38.8,31.2,18.6,33.5,26.7,7.7,93,83,60,29.92,29.64,20,1,20,0.18
2012-2-12,28.5,22.7,14.8,17.4,12.2,0.0,73,64,55,33.15,29.82,22,4,24,0.18
2012-2-13,43.9,31.5,24.5,22.9,18.6,12.1,71,59,37,33.15,30.00,17,4,19,0.18
2012-2-14,47.9,37.0,29.1,33.6,26.7,18.7,93,67,51,30.10,29.96,14,1,14,0.18
2012-2-15,46.9,36.5,25.8,37.0,32.1,23.3,96,85,59,30.30,30.05,11,1,12,0.18
2012-2-16,39.1,33.3,25.0,37.0,31.8,23.0,96,94,91,30.30,29.88,7,0,8,0.31
2012-2-17,48.8,38.6,30.2,37.4,30.6,22.7,98,75,43,30.09,29.98,20,1,20,0.02
2012-2-18,51.7,34.5,26.2,37.5,27.4,21.4,94,76,48,32.62,29.88,20,1,20,0.07
2012-2-19,49.2,36.1,30.2,30.6,25.2,20.3,85,66,42,30.22,29.98,13,2,14,0.00
2012-2-20,44.2,33.3,22.7,24.7,20.6,16.5,81,61,39,32.98,30.05,16,2,16,0.00
2012-2-21,45.9,33.7,19.3,32.1,23.5,15.5,89,68,45,30.36,29.82,20,2,20,0.00
2012-2-22,57.8,44.3,35.6,39.2,35.7,32.1,93,74,42,29.82,29.43,32,2,32,0.05
2012-2-23,55.3,44.5,36.6,39.4,34.1,27.7,94,70,40,29.74,29.39,19,2,19,0.01
2012-2-24,42.4,40.1,37.7,40.0,36.1,3.3,96,86,59,29.72,26.51,23,3,25,0.26
2012-2-25,39.9,35.5,29.4,30.6,24.5,15.2,82,64,52,30.17,29.52,30,6,31,0.00
2012-2-26,46.2,32.5,24.0,25.1,20.0,14.3,84,61,41,30.44,30.17,15,2,15,0.00
2012-2-27,58.9,40.1,19.4,35.5,27.5,17.0,94,65,37,30.39,30.06,20,2,20,0.00
2012-2-28,52.7,39.4,29.5,28.6,24.5,21.0,72,56,36,30.45,30.29,16,2,16,0.00
2012-2-29,41.9,36.7,29.8,38.8,32.2,0.0,94,84,60,33.15,29.66,13,2,13,0.38
2012-3-1,44.8,40.2,36.6,43.0,37.6,33.7,97,91,75,29.97,29.61,14,1,14,0.19
2012-3-2,45.2,38.9,28.9,39.0,34.5,27.1,96,85,71,30.05,29.67,20,2,21,0.24
2012-3-3,55.4,46.3,35.7,44.8,33.9,22.5,95,67,28,29.75,29.50,31,5,32,0.00
2012-3-4,42.3,34.4,26.4,30.5,23.6,18.4,85,65,43,29.82,29.64,17,2,17,0.00
2012-3-5,43.2,31.7,20.9,21.1,15.9,6.0,84,54,33,30.44,29.82,16,2,16,0.00
2012-3-6,46.7,31.9,16.5,23.5,17.6,8.6,83,57,35,30.63,30.44,13,1,13,0.00
2012-3-7,66.3,52.9,24.8,44.4,34.0,21.1,88,52,32,30.51,30.25,18,3,18,0.00
2012-3-8,69.8,58.7,44.7,56.2,49.3,43.5,97,72,54,30.25,29.74,26,5,26,0.31
2012-3-9,46.9,39.6,31.0,43.6,28.1,15.8,97,64,46,30.35,30.00,24,4,24,0.02
2012-3-10,45.8,32.7,24.3,20.4,15.3,8.5,71,49,33,30.62,30.34,16,2,16,0.00
2012-3-11,65.5,41.9,21.8,34.2,26.7,17.5,87,59,29,30.51,30.32,12,2,14,0.00
2012-3-12,71.8,49.8,28.7,46.9,36.8,26.1,94,65,35,30.35,30.09,11,1,11,0.00
2012-3-13,75.2,59.6,49.3,59.7,50.3,42.4,91,73,48,30.19,29.93,21,2,21,0.00
2012-3-14,75.3,53.6,35.8,46.0,38.3,31.2,97,63,25,30.21,29.93,14,1,21,0.00
2012-3-15,80.8,55.3,35.9,51.4,42.5,32.5,90,66,34,30.85,29.88,15,1,15,0.00
2012-3-16,72.8,55.5,46.8,57.7,48.8,42.4,92,79,58,30.22,30.08,10,1,10,0.00
2012-3-17,82.3,58.9,40.8,59.9,49.8,39.8,99,76,38,30.33,30.20,10,1,10,0.00
2012-3-18,77.8,60.4,47.9,60.0,53.0,46.3,97,78,50,30.35,30.17,13,2,13,0.00
2012-3-19,81.7,61.4,45.8,64.8,54.9,44.7,99,81,54,30.22,30.14,16,1,17,0.00
2012-3-20,77.0,64.4,55.5,63.7,59.0,53.5,98,84,61,30.31,30.21,11,1,12,0.17
2012-3-21,75.8,58.7,49.1,63.5,54.8,48.3,99,88,63,30.36,30.26,8,1,8,0.00
2012-3-22,80.5,63.2,52.9,65.3,57.5,51.4,98,83,53,30.30,30.11,7,1,7,0.00
2012-3-23,86.9,64.5,47.8,65.8,55.9,46.9,100,78,43,30.36,29.98,7,1,7,0.00
2012-3-24,63.8,56.9,49.7,55.1,46.8,37.1,86,70,51,30.03,29.94,14,2,18,0.09
2012-3-25,68.6,54.5,45.5,55.9,48.2,41.5,90,80,63,29.96,29.76,10,2,11,0.01
2012-3-26,55.5,43.2,31.9,50.1,26.0,11.0,93,53,31,30.24,29.79,29,6,29,0.00
2012-3-27,55.9,42.3,25.8,23.7,16.3,8.4,59,36,21,30.37,30.12,13,2,14,0.00
2012-3-28,74.5,54.6,35.4,57.4,38.9,16.7,82,56,33,30.12,29.55,17,2,18,0.05
2012-3-29,61.2,48.2,40.7,47.7,36.1,28.3,71,63,56,30.08,29.67,20,4,20,0.00
2012-3-30,63.3,46.9,28.2,43.2,30.4,22.7,89,55,30,30.13,29.84,14,2,14,0.23
2012-3-31,47.4,44.5,40.7,42.3,40.9,39.1,95,87,79,29.93,29.79,9,1,11,0.28
2012-4-1,54.1,46.7,42.6,46.5,43.2,39.8,97,88,69,29.91,29.64,12,1,13,0.19
2012-4-2,59.1,46.4,35.5,43.2,30.4,21.0,91,57,29,29.96,29.66,22,4,22,0.00
2012-4-3,72.0,48.3,28.6,37.7,28.5,24.3,86,52,19,30.03,29.79,14,1,14,0.00
2012-4-4,71.3,58.0,44.8,41.0,34.7,27.4,73,43,27,29.81,29.59,23,4,23,0.00
2012-4-5,57.9,44.1,29.9,34.3,29.7,24.6,89,59,36,30.02,29.81,17,2,20,0.00
2012-4-6,57.0,41.9,26.4,31.2,23.9,18.0,90,54,24,30.13,30.00,22,3,23,0.00
2012-4-7,62.5,44.1,25.7,30.5,23.5,18.4,89,51,21,30.28,30.06,20,3,23,0.00
2012-4-8,70.8,49.5,26.9,39.9,29.8,22.6,87,52,21,30.09,29.74,23,3,25,0.00
2012-4-9,62.4,51.7,40.5,38.6,30.2,24.6,68,46,27,29.84,29.69,31,4,31,0.01
2012-4-10,56.6,46.7,34.1,38.6,35.5,30.4,91,67,40,29.87,29.71,23,3,25,0.01
2012-4-11,51.7,41.5,31.7,40.4,34.4,29.9,96,77,54,30.02,29.85,21,2,21,0.01
2012-4-12,55.8,44.0,34.3,35.7,33.0,28.6,83,67,40,30.20,30.02,11,1,18,0.00
2012-4-13,67.8,46.8,26.6,39.5,32.8,24.5,95,64,28,30.28,30.16,13,2,18,0.00
2012-4-14,71.7,53.2,31.8,51.1,38.8,29.2,95,64,29,30.26,30.04,17,1,17,0.03
2012-4-15,78.8,63.8,53.3,64.8,57.3,51.0,98,81,58,30.07,29.96,14,1,14,0.03
2012-4-16,90.0,71.2,49.1,66.0,57.5,48.0,99,67,35,30.04,29.86,22,3,22,0.00
2012-4-17,75.6,65.0,51.7,60.1,44.6,37.6,79,50,27,30.26,29.93,17,2,17,0.00
2012-4-18,62.6,50.5,40.3,40.3,35.7,32.8,83,58,38,30.33,30.12,8,1,8,0.00
2012-4-19,80.3,56.2,33.8,52.6,43.5,31.8,96,67,33,30.14,29.97,14,1,14,0.00
2012-4-20,79.8,62.5,41.5,55.0,48.9,39.3,97,65,36,30.02,29.82,21,2,21,0.00
2012-4-21,78.9,60.9,47.0,62.0,54.3,43.9,93,80,55,29.85,29.65,13,1,14,0.57
2012-4-22,48.2,45.1,42.0,44.2,41.2,39.1,92,86,77,29.87,29.50,13,2,13,0.68
2012-4-23,43.2,40.1,37.5,39.8,37.7,35.6,95,91,82,29.50,29.29,13,2,13,0.44
2012-4-24,53.4,44.6,36.7,39.0,34.7,30.7,92,70,45,29.73,29.38,22,4,22,0.00
2012-4-25,64.4,46.6,30.9,43.9,35.2,29.1,98,70,31,29.91,29.72,18,2,18,0.01
2012-4-26,61.0,49.5,35.7,53.4,43.6,31.7,94,80,66,29.91,29.59,16,1,16,0.01
2012-4-27,53.9,45.2,31.7,46.6,31.8,26.9,84,61,39,30.20,29.73,25,3,25,0.00
2012-4-28,58.6,44.0,27.1,36.5,30.3,24.3,93,62,35,30.30,30.12,12,2,12,0.00
2012-4-29,67.8,49.1,28.4,37.0,28.3,20.6,95,52,21,30.30,30.13,19,2,19,0.00
2012-4-30,71.2,51.2,27.7,45.3,34.4,23.5,86,57,27,30.36,30.10,16,2,16,0.00
2012-5-1,87.7,63.5,31.8,77.9,55.1,-44.4,96,76,49,30.81,24.55,12,1,12,0.10
2012-5-2,66.1,58.7,53.0,59.9,55.5,17.7,100,90,76,31.03,28.91,9,1,10,0.09
2012-5-3,88.8,65.5,53.8,72.7,60.7,52.4,99,86,56,30.15,29.97,11,1,11,0.43
2012-5-4,88.2,69.3,59.9,71.7,64.6,59.6,100,87,49,30.03,29.85,16,2,16,1.85
2012-5-5,99.0,67.7,56.0,77.9,61.4,-50.2,100,82,53,34.98,23.96,10,1,10,0.01
2012-5-6,75.9,63.9,52.0,63.6,57.8,50.5,98,82,61,30.09,30.01,14,2,14,0.00
2012-5-7,61.9,58.5,56.8,57.8,54.8,50.8,96,88,76,30.12,29.99,13,1,15,0.06
2012-5-8,63.4,59.4,54.2,62.7,56.8,48.1,100,91,70,30.07,29.76,16,1,17,0.92
2012-5-9,75.6,65.4,57.2,62.9,57.6,49.2,100,78,43,29.79,29.66,13,2,16,0.06
2012-5-10,75.2,56.1,49.0,50.3,44.3,38.3,87,66,42,29.90,29.60,20,2,20,0.00
2012-5-11,75.4,56.1,38.9,45.5,40.6,37.0,95,62,27,30.16,29.90,18,2,20,0.00
2012-5-12,83.5,61.2,38.8,55.7,47.4,37.0,97,66,33,30.28,30.15,12,2,12,0.00
2012-5-13,86.0,65.1,51.6,60.9,54.9,49.2,96,73,34,30.21,30.10,10,0,10,0.00
2012-5-14,68.3,61.5,56.2,63.2,59.6,55.4,100,94,82,30.15,30.05,8,0,8,0.82
2012-5-15,77.3,65.7,60.3,69.6,63.7,59.6,100,94,72,30.06,29.91,9,1,9,1.48
2012-5-16,83.8,68.8,59.6,69.3,61.1,56.6,100,80,41,30.00,29.81,26,2,26,0.19
2012-5-17,93.9,59.4,21.9,58.8,44.2,-0.9,97,62,31,30.98,27.32,15,1,15,0.01
2012-5-18,84.8,62.6,41.1,55.8,48.6,39.1,96,66,31,30.24,30.11,7,1,7,0.00
2012-5-19,92.8,67.9,46.1,62.2,54.9,45.0,99,69,30,30.21,30.09,8,1,8,0.00
2012-5-20,91.8,71.6,51.3,65.2,55.7,43.9,99,63,32,30.24,30.14,16,1,16,0.00
2012-5-21,74.9,66.1,57.4,65.9,59.3,48.8,90,79,60,30.18,29.97,17,2,17,0.01
2012-5-22,86.7,71.2,63.3,67.9,64.3,61.2,96,81,51,29.98,29.81,11,1,11,0.00
2012-5-23,84.1,71.4,63.6,70.3,66.4,62.7,98,85,61,30.01,29.87,10,1,10,0.00
2012-5-24,87.3,72.2,62.7,70.3,65.7,62.1,100,82,54,30.13,30.01,15,2,16,0.00
2012-5-25,89.3,76.1,67.7,72.5,68.0,63.0,93,77,56,30.16,30.08,11,2,11,0.00
2012-5-26,95.1,73.9,63.4,78.2,69.3,62.8,100,87,58,30.16,30.07,14,1,14,0.00
2012-5-27,90.3,76.1,66.8,77.8,70.6,66.3,100,85,63,30.17,30.01,23,2,23,0.87
2012-5-28,91.9,76.4,63.3,78.4,71.0,63.0,100,85,62,30.07,29.91,11,2,11,0.00
2012-5-29,93.3,78.5,67.1,78.2,72.8,66.8,100,85,59,29.91,29.70,15,2,26,0.14
2012-5-30,85.3,72.4,61.8,69.8,65.4,58.2,100,81,45,29.83,29.71,15,2,15,0.53
2012-5-31,81.2,67.4,54.2,60.9,56.6,53.3,99,72,42,29.97,29.78,10,1,10,0.14
2012-6-1,86.0,63.7,54.6,63.3,57.1,-39.4,97,80,64,30.69,25.95,27,3,28,0.97
2012-6-2,75.3,62.9,52.7,60.0,54.6,49.8,100,77,44,29.84,29.70,23,2,24,0.14
2012-6-3,87.0,59.9,48.9,63.0,55.3,-1.4,99,86,61,30.56,26.30,18,2,18,0.61
2012-6-4,70.5,59.2,53.8,59.9,55.3,52.5,100,88,62,29.85,29.65,16,1,16,0.41
2012-6-5,71.0,58.6,48.9,56.2,52.5,48.1,99,82,52,29.98,29.83,9,1,9,0.14
2012-6-6,80.7,63.3,51.1,60.2,54.8,50.1,100,77,41,30.04,29.94,10,1,11,0.14
2012-6-7,79.1,64.7,51.1,62.7,57.0,50.0,99,78,51,30.04,29.94,15,2,15,0.14
2012-6-8,85.5,67.7,52.2,63.3,57.5,51.5,100,74,37,30.03,29.89,17,2,17,0.14
2012-6-9,83.2,68.4,53.8,67.8,60.8,53.0,100,79,53,30.02,29.93,9,0,10,0.14
2012-6-10,94.4,77.0,61.3,71.8,66.5,60.7,100,74,41,30.14,30.01,11,2,11,0.14
2012-6-11,92.8,77.0,63.1,74.7,68.6,62.4,100,77,54,30.19,30.09,20,2,20,0.14
2012-6-12,72.7,69.9,68.0,69.3,67.0,64.7,100,91,81,30.11,29.87,17,1,17,0.30
2012-6-13,77.1,67.7,56.1,68.0,58.6,53.2,100,74,52,30.16,29.90,14,3,19,0.01
2012-6-14,87.7,68.8,49.9,66.4,58.9,49.1,100,74,44,30.26,30.14,9,1,9,0.00
2012-6-15,91.1,72.5,55.1,68.6,62.6,54.5,100,75,41,30.33,30.23,9,1,9,0.00
2012-6-16,89.5,73.4,58.4,66.7,60.8,55.0,91,67,44,30.37,30.20,10,1,10,0.00
2012-6-17,83.1,72.0,55.6,64.9,60.0,53.3,92,68,49,30.23,30.05,15,3,15,0.00
2012-6-18,71.2,65.9,61.2,62.5,59.6,56.2,87,80,73,30.15,30.06,13,1,13,0.00
2012-6-19,90.2,73.7,64.0,76.3,68.3,60.7,98,84,63,30.17,30.07,9,1,9,0.16
2012-6-20,98.2,81.5,67.1,79.2,73.3,66.5,100,79,50,30.16,30.01,11,1,11,0.00
2012-6-21,98.0,82.6,67.0,77.7,73.3,66.5,100,76,48,30.04,29.82,13,2,13,0.00
2012-6-22,93.0,76.2,63.2,78.8,70.7,61.2,100,85,59,29.91,29.82,22,1,25,0.68
2012-6-23,86.0,72.2,58.7,68.5,60.5,52.9,100,71,35,30.05,29.90,16,1,18,0.00
2012-6-24,87.6,72.3,55.2,67.8,62.0,54.3,99,73,42,30.08,29.90,10,1,10,0.00
2012-6-25,77.8,67.4,56.6,66.3,58.7,47.5,99,76,45,29.91,29.74,20,2,21,0.42
2012-6-26,77.3,64.3,49.6,56.6,51.4,47.7,95,66,38,29.87,29.78,23,3,23,0.00
2012-6-27,84.0,68.2,50.4,60.3,55.3,48.7,97,67,39,29.92,29.82,21,2,22,0.00
2012-6-28,92.6,74.1,54.8,71.7,63.6,53.6,98,73,45,29.92,29.74,12,2,12,0.00
2012-6-29,98.6,81.9,67.7,79.7,72.2,65.1,97,75,48,29.79,29.68,14,2,14,0.01
2012-6-30,92.5,78.3,65.5,72.4,68.9,64.2,98,75,49,29.86,29.73,13,2,13,0.00
2012-7-1,95.8,79.0,62.6,75.9,67.2,62.0,100,72,37,30.00,29.84,14,2,14,0.00
2012-7-2,89.8,75.4,59.9,67.1,62.3,59.0,98,68,39,30.01,29.93,16,2,16,0.00
2012-7-3,107.0,76.5,12.3,77.9,65.4,-16.1,100,72,40,30.62,26.68,11,0,11,0.00
2012-7-4,95.4,81.3,68.9,77.2,72.3,0.0,98,77,54,33.15,29.78,15,2,15,0.05
2012-7-5,96.3,83.3,69.6,76.8,71.1,63.3,99,70,38,30.20,29.59,17,2,17,0.00
2012-7-6,100.5,81.4,61.9,77.4,69.4,61.0,98,70,44,30.00,29.88,13,1,14,0.00
2012-7-7,104.0,80.6,68.1,80.5,73.2,67.5,100,82,44,30.10,29.62,27,1,36,0.59
2012-7-8,94.3,80.3,69.4,75.2,71.2,63.7,100,77,46,29.95,29.85,10,1,10,0.21
2012-7-9,90.3,75.5,61.8,69.7,63.5,58.7,98,70,38,30.03,29.93,10,1,10,0.00
2012-7-10,93.7,75.9,57.4,66.4,61.7,55.9,96,66,35,30.13,30.00,9,1,10,0.02
2012-7-11,92.5,76.8,62.0,73.9,67.5,61.4,100,76,49,30.19,30.11,12,2,13,0.01
2012-7-12,97.5,79.3,62.5,71.6,66.8,61.8,100,69,38,30.24,30.13,12,2,13,0.00
2012-7-13,91.3,77.5,65.5,73.0,67.4,63.8,97,73,47,30.24,30.18,11,1,11,0.00
2012-7-14,86.4,77.7,69.8,71.5,68.4,65.1,87,74,57,30.26,30.14,9,2,11,0.00
2012-7-15,93.0,77.1,68.5,80.1,72.1,68.4,100,86,56,30.18,29.95,29,2,29,0.51
2012-7-16,93.9,78.5,67.6,76.5,71.4,65.5,100,81,51,30.02,29.85,12,2,12,0.00
2012-7-17,99.1,80.8,63.5,77.3,70.8,63.1,100,75,47,29.93,29.78,17,2,17,0.00
2012-7-18,99.3,80.9,71.8,81.1,75.0,70.7,98,84,54,29.96,29.82,13,1,14,0.05
2012-7-19,88.0,75.8,69.1,74.6,70.2,67.1,100,84,56,30.03,29.92,9,1,10,0.08
2012-7-20,71.9,65.6,62.6,68.6,64.4,62.0,99,96,88,30.09,29.92,13,2,14,1.48
2012-7-21,83.5,69.9,61.6,67.8,63.9,61.3,100,83,57,30.15,30.08,7,1,7,0.12
2012-7-22,87.7,73.9,61.7,70.4,66.5,61.2,100,80,52,30.19,30.10,11,1,11,0.00
2012-7-23,92.2,79.5,66.0,77.1,71.6,65.5,100,79,57,30.14,27.13,18,3,19,0.00
2012-7-24,94.2,82.1,71.3,77.6,69.8,60.4,94,68,40,29.87,29.68,21,3,21,0.00
2012-7-25,89.5,73.6,56.1,66.5,60.6,54.4,96,67,41,30.00,29.83,13,1,14,0.00
2012-7-26,92.5,73.5,63.4,80.3,69.3,60.5,100,88,66,29.85,29.63,16,2,16,1.11
2012-7-27,91.6,75.4,67.2,78.6,71.8,66.9,100,90,61,29.99,29.52,11,2,12,0.96
2012-7-28,89.7,75.3,67.4,76.8,70.6,67.4,100,87,60,29.98,29.89,9,1,9,0.96
2012-7-29,94.4,76.1,66.7,74.3,69.5,66.4,100,82,50,30.51,29.94,9,1,9,0.96
2012-7-30,88.0,74.7,65.2,75.9,70.1,65.0,100,87,61,30.13,29.98,23,1,23,0.96
2012-7-31,90.7,76.8,66.2,74.3,69.3,65.0,99,79,54,30.09,29.90,16,1,16,0.96
2012-8-1,90.1,74.3,63.4,74.7,69.0,62.9,100,85,55,29.97,29.84,9,1,9,0.96
2012-8-2,91.9,76.4,65.9,77.7,69.5,64.7,100,83,47,29.96,29.88,12,1,12,0.96
2012-8-3,98.5,79.1,64.9,78.6,72.0,30.0,100,81,52,30.86,26.64,7,0,7,0.96
2012-8-4,102.3,79.6,68.9,79.1,73.3,68.9,100,83,57,30.87,29.91,20,1,20,0.96
2012-8-5,91.0,79.8,74.2,79.6,74.7,71.7,98,85,67,30.16,29.98,14,2,16,0.96
2012-8-6,96.3,75.7,62.9,73.8,67.6,61.3,100,79,44,30.92,30.01,15,1,15,0.96
2012-8-7,89.0,73.0,58.4,70.8,64.6,58.1,100,78,47,30.07,29.97,13,1,13,0.96
2012-8-8,93.7,75.8,60.8,75.3,67.5,60.5,100,79,41,30.04,29.94,10,1,10,0.96
2012-8-9,95.2,76.8,65.5,77.3,70.4,65.0,100,83,50,29.99,29.84,28,2,28,0.23
2012-8-10,84.5,72.9,67.1,74.7,70.4,66.8,100,92,69,29.89,29.70,11,1,11,0.16
2012-8-11,86.5,75.0,65.2,72.4,67.4,61.6,100,80,45,29.97,29.79,18,2,18,0.02
2012-8-12,82.5,70.0,60.7,68.0,63.8,60.1,99,82,60,30.03,29.95,12,1,12,0.00
2012-8-13,89.0,71.0,57.5,69.2,62.7,57.2,100,79,43,30.09,29.98,9,1,9,0.00
2012-8-14,87.5,71.5,61.4,74.8,67.0,60.0,100,87,63,30.01,29.69,11,1,11,0.81
2012-8-15,99.2,72.2,63.7,71.7,68.2,-18.5,100,88,67,30.89,24.86,9,1,9,0.01
2012-8-16,87.0,71.3,59.4,70.6,64.1,59.0,100,81,47,30.04,29.90,13,1,13,0.01
2012-8-17,94.5,69.7,60.3,71.9,65.6,55.2,100,88,64,30.33,28.46,11,1,12,0.41
2012-8-18,89.6,68.1,37.8,66.6,55.2,-38.4,100,80,40,34.61,25.63,12,1,12,0.03
2012-8-19,81.5,64.2,51.6,66.0,49.0,0.0,100,84,52,34.99,24.93,6,0,6,0.01
2012-8-20,79.2,64.0,56.7,67.9,61.5,56.1,100,92,64,30.00,29.90,8,0,8,0.32
2012-8-21,86.4,69.2,58.9,66.8,62.5,58.0,100,82,46,30.14,29.99,11,1,11,0.30
2012-8-22,87.8,69.7,56.7,69.3,62.6,56.1,100,82,49,30.20,30.10,10,1,10,0.30
2012-8-23,89.7,71.5,58.3,70.9,63.0,58.1,100,79,39,30.22,30.13,10,0,10,0.30
2012-8-24,94.0,72.8,57.3,72.3,64.6,57.1,100,79,42,30.23,30.15,6,0,6,0.30
2012-8-25,88.1,72.5,60.1,73.0,65.5,59.8,100,81,53,30.29,30.20,9,0,11,0.30
2012-8-26,92.8,76.2,64.2,72.6,66.9,62.0,96,75,49,30.32,30.20,13,1,13,0.30
2012-8-27,90.0,75.7,65.6,74.9,70.1,64.4,99,84,60,30.23,29.96,11,1,14,0.30
2012-8-28,87.0,75.7,63.6,73.1,67.9,60.8,100,79,48,30.00,29.90,15,2,15,0.30
2012-8-29,84.0,68.3,55.8,65.0,59.7,54.3,100,77,45,30.09,29.99,12,1,12,0.30
2012-8-30,86.5,67.1,53.0,66.3,59.3,52.4,100,80,45,30.18,30.08,9,1,9,0.30
2012-8-31,93.2,71.6,55.5,69.6,62.7,54.8,100,78,39,30.14,29.97,14,2,15,0.30
2012-9-1,92.0,74.9,62.3,73.0,65.8,60.4,99,77,40,30.11,30.00,11,1,11,0.30
2012-9-2,77.0,68.7,60.6,72.2,65.7,59.2,98,91,80,30.11,30.03,6,0,6,0.30
2012-9-3,75.6,72.1,69.6,70.9,69.3,68.2,98,91,84,30.18,30.06,13,1,13,0.30
2012-9-4,85.5,75.8,70.3,77.2,72.8,68.5,100,91,75,30.09,29.83,11,1,11,0.30
2012-9-5,82.1,73.5,62.1,74.0,69.5,61.5,100,88,63,29.91,29.81,12,1,12,0.36
2012-9-6,90.8,72.5,60.6,76.0,68.0,60.4,100,87,60,30.01,29.88,20,1,20,0.30
2012-9-7,92.5,73.8,60.3,75.0,67.8,60.1,100,84,51,30.00,29.83,10,1,12,0.34
2012-9-8,84.1,71.0,59.9,73.6,66.9,58.8,96,87,70,29.86,29.63,29,2,31,0.30
2012-9-9,76.8,62.7,53.0,63.5,57.6,52.7,100,85,56,30.00,29.85,13,1,13,0.30
2012-9-10,90.2,59.2,46.7,57.1,50.8,45.1,100,77,45,30.94,30.00,16,2,16,0.30
2012-9-11,78.4,57.7,41.8,60.5,51.0,41.3,100,82,43,30.34,30.20,9,1,9,0.30
2012-9-12,87.2,63.8,49.5,64.5,55.5,48.7,100,79,41,30.40,30.30,9,1,9,0.30
2012-9-13,89.3,65.6,49.8,66.4,57.1,49.3,100,78,42,30.41,30.22,8,1,10,0.30
2012-9-14,84.8,66.5,50.6,65.0,58.3,50.1,100,79,45,30.31,29.82,11,1,12,0.30
2012-9-15,86.9,60.1,-8.4,60.7,52.2,-43.3,100,79,48,34.95,22.09,16,1,16,0.30
2012-9-16,76.8,59.1,47.0,59.2,51.6,46.2,100,80,43,30.20,30.07,12,1,13,0.30
2012-9-17,81.3,62.4,46.2,62.8,54.3,45.4,100,79,42,30.17,29.98,11,1,12,0.30
2012-9-18,87.5,67.4,19.5,70.2,65.7,-27.2,100,94,84,33.15,24.86,24,2,24,1.35
2012-9-19,71.6,58.7,45.7,58.5,50.4,44.3,99,77,42,30.22,29.83,17,1,17,0.30
2012-9-20,76.1,57.5,43.0,56.7,49.8,42.5,100,79,47,30.51,29.68,13,1,13,0.30
2012-9-21,81.2,63.6,47.6,66.2,57.4,47.2,100,82,59,30.10,29.90,13,2,15,0.30
2012-9-22,81.5,68.1,54.5,67.2,60.9,51.7,96,79,57,29.96,29.77,16,2,16,0.30
2012-9-23,68.3,56.2,44.0,51.8,47.1,42.6,97,73,45,30.18,29.95,15,2,16,0.00
2012-9-24,67.5,51.6,40.3,49.7,43.9,39.4,100,78,43,30.24,30.11,14,1,14,0.00
2012-9-25,71.8,53.9,37.8,56.8,47.5,37.0,100,82,44,30.21,30.09,14,1,14,0.03
2012-9-26,71.8,62.9,57.6,65.1,61.4,56.7,100,95,79,30.12,30.03,14,1,14,0.16
2012-9-27,73.7,64.6,58.8,62.7,60.1,53.9,100,87,60,30.23,30.09,9,1,9,0.40
2012-9-28,72.1,63.0,57.0,66.7,60.0,52.9,100,91,72,30.15,29.74,12,1,12,0.47
2012-9-29,68.7,57.5,49.7,57.0,52.1,48.5,96,83,63,30.06,26.29,8,0,8,0.00
2012-9-30,69.8,54.6,45.9,55.1,49.3,44.7,100,84,51,29.94,29.82,13,1,13,0.00
2012-10-1,73.8,56.3,43.8,56.7,50.3,43.2,100,83,51,29.99,29.88,14,1,14,0.01
2012-10-2,65.4,60.2,56.7,63.5,58.8,0.0,100,95,90,33.15,29.87,9,0,9,0.52
2012-10-3,76.1,67.0,62.9,70.6,65.8,62.6,100,96,82,30.15,29.97,5,0,5,0.00
2012-10-4,78.0,65.4,54.0,70.2,64.2,51.7,100,96,78,30.35,28.28,6,0,6,0.55
2012-10-5,81.4,62.8,50.9,69.5,58.6,50.9,100,88,58,30.14,29.93,9,1,9,0.01
2012-10-6,62.2,55.1,42.4,62.1,51.7,41.3,100,89,58,30.10,28.44,16,1,16,0.02
2012-10-7,73.8,47.0,39.4,65.8,43.2,-28.6,99,87,64,33.15,22.58,9,0,9,0.06
2012-10-8,56.0,45.0,34.1,44.6,40.1,33.2,99,84,56,30.33,30.16,6,0,6,0.00
2012-10-9,63.5,52.4,44.6,51.5,47.6,43.2,96,84,63,30.26,30.05,7,0,7,0.00
2012-10-10,64.0,54.4,40.9,54.2,49.5,32.2,100,85,61,30.22,29.82,24,2,27,0.10
2012-10-11,63.0,47.8,37.4,40.8,37.5,32.9,94,70,41,30.27,30.05,15,2,15,0.00
2012-10-12,57.2,43.2,32.2,43.3,34.4,27.4,99,74,40,30.48,30.11,19,1,19,0.00
2012-10-13,61.1,41.8,25.4,38.0,31.4,23.7,96,70,37,30.55,30.23,14,1,14,0.00
2012-10-14,82.3,60.2,50.0,57.3,48.9,36.0,78,67,54,30.82,26.22,17,2,17,0.00
2012-10-15,68.0,61.6,49.4,61.4,54.7,-16.9,89,78,62,30.42,25.45,17,2,19,0.06
2012-10-16,59.8,50.4,36.9,45.6,41.2,35.1,94,71,53,29.96,29.78,14,1,14,0.00
2012-10-17,88.1,48.8,34.4,66.0,42.1,0.0,100,81,45,33.15,20.33,9,1,9,0.00
2012-10-18,71.4,56.9,41.6,57.1,49.6,40.4,100,79,51,29.99,29.78,23,2,23,0.39
2012-10-19,70.4,60.1,54.6,65.3,58.9,54.2,100,96,84,29.89,29.65,12,1,18,0.56
2012-10-20,63.5,52.3,41.8,54.2,47.2,38.8,100,85,52,30.02,29.57,17,2,17,0.01
2012-10-21,64.8,49.0,37.7,48.8,42.4,36.9,100,81,50,30.11,29.89,17,1,17,0.00
2012-10-22,70.5,49.6,34.8,50.6,42.7,33.9,100,80,43,30.20,29.89,14,1,14,0.00
2012-10-23,66.3,53.2,41.7,59.7,50.8,40.1,98,92,77,33.15,29.10,4,0,4,0.08
2012-10-24,82.0,64.3,53.6,66.8,58.8,53.0,100,84,52,30.22,30.05,10,0,10,0.01
2012-10-25,67.8,61.8,56.0,60.1,58.0,54.3,97,87,78,30.27,30.11,8,0,8,0.00
2012-10-26,65.6,62.0,59.4,59.3,57.5,56.2,91,85,79,30.22,30.10,8,0,9,0.00
2012-10-27,64.8,60.6,55.7,58.3,56.7,53.1,95,87,76,30.11,29.93,8,0,8,0.00
2012-10-28,58.2,54.4,50.5,53.8,50.5,45.8,98,87,65,29.95,29.72,17,2,17,0.20
2012-10-29,58.0,52.2,49.9,56.6,49.1,46.9,98,89,82,29.74,28.65,44,5,44,1.38
2012-10-30,55.6,44.9,40.0,51.8,41.6,37.3,92,88,83,29.47,28.68,33,5,40,0.32
2012-10-31,43.6,41.4,39.2,40.4,38.9,37.3,94,91,87,29.60,29.45,11,1,11,0.07
2012-11-1,48.2,44.2,41.7,41.6,40.0,38.1,90,85,74,29.68,29.58,16,3,18,0.02
2012-11-2,47.4,42.8,39.5,40.1,36.5,28.8,85,78,67,29.87,29.67,16,2,16,0.01
2012-11-3,45.8,41.7,39.0,33.8,31.8,29.3,79,68,59,30.07,29.86,19,2,20,0.00
2012-11-4,42.0,39.2,36.7,31.1,29.7,27.8,74,68,62,30.08,30.03,13,2,13,0.00
2012-11-5,40.7,37.3,34.5,29.3,26.6,22.1,74,65,56,30.21,30.05,14,2,14,0.00
2012-11-6,50.4,34.7,23.1,30.2,24.7,19.5,90,69,42,30.25,30.08,8,0,8,0.00
2012-11-7,45.6,35.7,27.6,30.7,24.8,22.0,86,65,46,30.10,29.94,13,1,13,0.00
2012-11-8,49.9,39.6,27.7,27.6,23.7,20.6,76,54,34,30.08,29.92,22,2,22,0.00
2012-11-9,55.8,38.0,26.0,38.3,30.2,20.6,92,75,50,30.25,30.06,14,1,14,0.00
2012-11-10,50.9,39.3,29.6,42.5,35.7,27.8,95,87,71,30.39,30.23,4,0,5,0.00
2012-11-11,74.5,52.1,34.9,53.1,42.9,33.3,98,74,38,30.47,30.35,14,1,14,0.00
2012-11-12,70.8,57.5,43.7,57.9,51.0,40.1,96,79,62,30.41,30.09,25,3,27,0.33
2012-11-13,49.7,41.9,37.0,48.6,34.3,25.9,96,76,54,30.52,30.23,17,2,21,0.52
2012-11-14,51.3,38.6,26.6,31.4,26.7,23.3,89,63,44,30.58,30.45,17,2,17,0.00
2012-11-15,49.6,33.6,25.5,33.5,27.6,20.5,94,80,52,30.49,30.32,7,0,7,0.00
2012-11-16,53.8,35.0,26.2,38.0,28.5,24.2,95,80,42,30.51,30.33,10,0,10,0.00
2012-11-17,57.6,35.8,15.5,45.9,30.0,-50.9,97,82,51,31.47,24.83,6,0,6,0.01
2012-11-18,54.8,32.6,25.3,38.5,28.1,23.5,94,84,54,30.65,30.18,6,0,6,0.00
2012-11-19,55.8,34.9,22.6,41.2,29.6,21.1,97,83,52,30.19,29.88,5,0,5,0.01
2012-11-20,58.0,36.9,27.4,39.7,30.9,25.7,96,81,50,29.94,29.37,5,0,6,0.00
2012-11-21,58.9,37.5,26.9,41.9,31.3,24.7,96,81,49,29.88,29.78,5,0,6,0.00
2012-11-22,59.1,36.0,23.2,42.4,30.1,21.7,97,82,47,29.92,29.71,5,0,5,0.00
2012-11-23,61.3,39.4,23.6,44.7,33.1,21.9,97,80,48,29.75,29.37,23,1,23,0.02
2012-11-24,40.4,36.0,33.4,30.5,26.1,24.1,81,67,54,29.56,29.43,20,4,21,0.00
2012-11-25,37.9,33.6,26.8,25.5,23.5,20.4,82,67,56,29.60,29.50,17,3,17,0.00
2012-11-26,48.3,35.7,25.6,30.2,25.7,21.4,87,68,45,29.99,29.33,14,2,14,0.00
2012-11-27,47.0,33.4,28.7,35.8,30.6,-42.6,96,90,82,30.24,27.88,2,0,2,0.21
2012-11-28,40.9,32.2,23.1,31.0,26.2,21.6,96,80,58,29.93,29.83,11,1,11,0.07
2012-11-29,69.3,34.0,23.2,30.6,25.6,-22.6,88,72,55,30.75,26.58,13,2,13,0.04
2012-11-30,46.7,33.7,22.5,33.5,27.9,20.5,94,80,57,30.02,29.90,6,0,6,0.00
2012-12-1,44.0,40.5,35.7,39.5,37.0,32.0,92,87,83,30.09,30.00,4,0,7,0.00
2012-12-2,55.7,46.4,41.0,46.5,42.7,37.5,97,87,70,30.02,29.71,13,1,13,0.09
2012-12-3,64.8,50.1,40.2,57.5,48.2,39.2,100,93,74,29.93,29.75,4,0,4,0.00
2012-12-4,80.5,56.8,45.6,68.5,51.7,-49.5,100,87,65,34.53,29.27,16,2,18,0.05
2012-12-5,64.0,44.1,7.8,57.3,35.6,-16.1,96,73,55,30.32,28.55,21,3,21,0.10
2012-12-6,43.9,30.2,21.0,28.6,22.7,17.5,90,75,52,30.01,29.85,9,0,9,0.00
2012-12-7,38.2,34.4,25.4,37.4,32.3,22.6,97,92,84,29.86,29.62,5,0,5,0.35
2012-12-8,48.3,42.6,38.2,46.1,41.7,37.4,99,96,91,29.67,29.50,4,0,5,0.19
2012-12-9,43.7,40.2,38.2,43.2,37.8,33.9,99,91,81,29.89,29.59,10,1,11,0.14
2012-12-10,49.5,46.4,43.0,49.1,45.8,0.0,100,98,89,34.88,29.10,14,1,14,0.36
2012-12-11,44.6,38.0,28.8,40.7,33.9,26.5,98,86,60,29.83,29.33,14,1,14,0.08
2012-12-12,45.0,31.6,24.6,38.3,26.9,22.2,98,84,52,30.09,29.83,11,0,11,0.00
2012-12-13,47.3,29.4,21.7,39.2,25.1,19.7,97,85,52,30.12,29.95,5,0,5,0.00
2012-12-14,47.2,29.6,18.7,37.2,24.9,16.9,97,84,54,29.96,29.82,10,0,10,0.00
2012-12-15,47.4,33.8,23.1,37.6,29.5,21.5,97,85,67,29.96,29.75,14,1,16,0.01
2012-12-16,49.6,45.7,42.1,44.1,40.9,34.4,93,83,74,29.76,29.49,16,1,16,0.01
2012-12-17,48.7,44.5,42.5,44.7,42.4,40.9,98,92,85,29.50,29.19,9,1,9,0.52
2012-12-18,47.8,42.8,38.1,46.6,40.4,29.9,100,92,72,29.39,29.13,19,2,19,0.14
2012-12-19,45.6,36.3,28.6,36.2,30.7,26.4,95,81,62,29.80,29.39,14,1,17,0.00
2012-12-20,43.5,33.5,26.2,40.8,30.0,24.7,97,87,67,29.83,29.16,28,2,28,0.29
2012-12-21,48.7,38.5,32.9,47.2,34.6,27.8,97,86,73,29.15,28.83,42,5,42,0.86
2012-12-22,38.5,34.9,32.3,31.7,25.9,23.0,95,70,56,29.57,29.00,25,5,25,0.21
2012-12-23,41.9,33.3,24.7,25.9,23.7,20.9,86,68,48,29.63,29.50,17,3,17,0.21
2012-12-24,39.9,29.1,18.8,29.8,24.4,16.6,94,84,61,29.71,29.52,10,1,10,0.21
2012-12-25,38.6,33.0,27.7,35.4,28.9,21.1,97,86,68,29.92,29.52,12,1,12,0.21
2012-12-26,35.2,27.7,22.8,30.7,23.1,16.8,95,83,73,29.93,29.14,23,4,23,0.21
2012-12-27,34.9,31.9,30.2,31.0,25.9,22.5,91,78,69,29.59,29.09,20,2,20,0.21
2012-12-28,37.4,29.8,20.5,26.7,23.0,18.0,91,76,64,29.76,29.59,10,1,11,0.21
2012-12-29,30.5,27.8,21.1,28.7,25.2,18.9,94,90,78,29.67,29.21,9,1,9,0.21
2012-12-30,36.2,30.1,25.4,25.2,20.7,16.9,78,68,56,29.88,29.38,22,3,22,0.21
2012-12-31,36.8,30.6,22.6,30.5,22.2,16.8,82,71,61,29.86,29.54,14,2,14,0.21
2013-1-1,37.0,33.1,23.4,31.0,25.4,14.5,87,73,59,29.67,29.51,13,2,13,0.21